sensor_id;sensor_type;location;lat;lon;timestamp;temperature;humidity
16523;DHT22;19889;52.546;13.348;2022-12-07T00:01:59;5.10;99.90
16523;DHT22;19889;52.546;13.348;2022-12-07T00:04:26;5.30;99.90
16523;DHT22;19889;52.546;13.348;2022-12-07T00:06:53;5.30;99.90
16523;DHT22;19889;52.546;13.348;2022-12-07T00:09:20;5.10;99.90
16523;DHT22;19889;52.546;13.348;2022-12-07T00:11:49;5.00;99.90
16523;DHT22;19889;52.546;13.348;2022-12-07T00:14:17;5.00;99.90
16523;DHT22;19889;52.546;13.348;2022-12-07T00:16:45;5.10;99.90
16523;DHT22;19889;52.546;13.348;2022-12-07T00:19:13;5.30;99.90
16523;DHT22;19889;52.546;13.348;2022-12-07T00:21:41;5.00;99.90
16523;DHT22;19889;52.546;13.348;2022-12-07T00:24:09;5.00;99.90
16523;DHT22;19889;52.546;13.348;2022-12-07T00:26:37;5.00;99.90
16523;DHT22;19889;52.546;13.348;2022-12-07T00:29:08;5.00;99.90
16523;DHT22;19889;52.546;13.348;2022-12-07T00:31:37;6.20;99.90
16523;DHT22;19889;52.546;13.348;2022-12-07T00:34:05;5.00;99.90
16523;DHT22;19889;52.546;13.348;2022-12-07T00:36:33;5.00;99.90
16523;DHT22;19889;52.546;13.348;2022-12-07T00:39:00;5.00;99.90
16523;DHT22;19889;52.546;13.348;2022-12-07T00:41:28;5.30;99.90
16523;DHT22;19889;52.546;13.348;2022-12-07T00:43:56;5.00;99.90
16523;DHT22;19889;52.546;13.348;2022-12-07T00:46:23;5.10;99.90
16523;DHT22;19889;52.546;13.348;2022-12-07T00:48:51;5.10;99.90
16523;DHT22;19889;52.546;13.348;2022-12-07T00:51:21;5.10;99.90
16523;DHT22;19889;52.546;13.348;2022-12-07T00:53:50;4.90;99.90
16523;DHT22;19889;52.546;13.348;2022-12-07T00:56:19;5.20;99.90
16523;DHT22;19889;52.546;13.348;2022-12-07T00:58:51;5.00;99.90
16523;DHT22;19889;52.546;13.348;2022-12-07T01:01:18;4.80;99.90
16523;DHT22;19889;52.546;13.348;2022-12-07T01:03:45;5.00;99.90
16523;DHT22;19889;52.546;13.348;2022-12-07T01:06:14;4.80;99.90
16523;DHT22;19889;52.546;13.348;2022-12-07T01:08:42;4.80;99.90
16523;DHT22;19889;52.546;13.348;2022-12-07T01:11:13;4.90;99.90
16523;DHT22;19889;52.546;13.348;2022-12-07T01:13:41;4.80;99.90
16523;DHT22;19889;52.546;13.348;2022-12-07T01:16:09;4.70;99.90
16523;DHT22;19889;52.546;13.348;2022-12-07T01:18:37;4.90;99.90
16523;DHT22;19889;52.546;13.348;2022-12-07T01:21:05;4.70;99.90
16523;DHT22;19889;52.546;13.348;2022-12-07T01:23:33;4.60;99.90
16523;DHT22;19889;52.546;13.348;2022-12-07T01:26:02;5.00;99.90
16523;DHT22;19889;52.546;13.348;2022-12-07T01:28:31;4.90;99.90
16523;DHT22;19889;52.546;13.348;2022-12-07T01:31:00;4.80;99.90
16523;DHT22;19889;52.546;13.348;2022-12-07T01:33:27;4.80;99.90
16523;DHT22;19889;52.546;13.348;2022-12-07T01:35:59;4.80;99.90
16523;DHT22;19889;52.546;13.348;2022-12-07T01:38:26;4.60;99.90
16523;DHT22;19889;52.546;13.348;2022-12-07T01:40:54;4.60;99.90
16523;DHT22;19889;52.546;13.348;2022-12-07T01:43:23;4.60;99.90
16523;DHT22;19889;52.546;13.348;2022-12-07T01:45:52;4.60;99.90
16523;DHT22;19889;52.546;13.348;2022-12-07T01:48:22;4.60;99.90
16523;DHT22;19889;52.546;13.348;2022-12-07T01:50:52;4.70;99.90
16523;DHT22;19889;52.546;13.348;2022-12-07T01:53:20;4.60;99.90
16523;DHT22;19889;52.546;13.348;2022-12-07T01:55:49;5.10;99.90
16523;DHT22;19889;52.546;13.348;2022-12-07T01:58:17;4.80;99.90
16523;DHT22;19889;52.546;13.348;2022-12-07T02:00:45;4.70;99.90
16523;DHT22;19889;52.546;13.348;2022-12-07T02:03:16;4.70;99.90
16523;DHT22;19889;52.546;13.348;2022-12-07T02:05:45;4.60;99.90
16523;DHT22;19889;52.546;13.348;2022-12-07T02:08:13;4.60;99.90
16523;DHT22;19889;52.546;13.348;2022-12-07T02:10:40;4.80;99.90
16523;DHT22;19889;52.546;13.348;2022-12-07T02:13:12;4.70;99.90
16523;DHT22;19889;52.546;13.348;2022-12-07T02:15:48;4.60;99.90
16523;DHT22;19889;52.546;13.348;2022-12-07T02:18:23;4.70;99.90
16523;DHT22;19889;52.546;13.348;2022-12-07T02:20:58;4.60;99.90
16523;DHT22;19889;52.546;13.348;2022-12-07T02:23:50;4.60;99.90
16523;DHT22;19889;52.546;13.348;2022-12-07T02:26:48;5.80;99.90
16523;DHT22;19889;52.546;13.348;2022-12-07T02:29:22;4.60;99.90
16523;DHT22;19889;52.546;13.348;2022-12-07T02:31:56;4.70;99.90
16523;DHT22;19889;52.546;13.348;2022-12-07T02:34:34;4.90;99.90
16523;DHT22;19889;52.546;13.348;2022-12-07T02:37:10;4.70;99.90
16523;DHT22;19889;52.546;13.348;2022-12-07T02:39:42;4.60;99.90
16523;DHT22;19889;52.546;13.348;2022-12-07T02:42:15;4.90;99.90
16523;DHT22;19889;52.546;13.348;2022-12-07T02:44:46;4.80;99.90
16523;DHT22;19889;52.546;13.348;2022-12-07T02:47:16;4.60;99.90
16523;DHT22;19889;52.546;13.348;2022-12-07T02:49:44;4.50;99.90
16523;DHT22;19889;52.546;13.348;2022-12-07T02:52:11;4.60;99.90
16523;DHT22;19889;52.546;13.348;2022-12-07T02:54:38;4.50;99.90
16523;DHT22;19889;52.546;13.348;2022-12-07T02:57:15;4.70;99.90
16523;DHT22;19889;52.546;13.348;2022-12-07T03:00:00;4.50;99.90
16523;DHT22;19889;52.546;13.348;2022-12-07T03:02:35;4.50;99.90
16523;DHT22;19889;52.546;13.348;2022-12-07T03:05:13;4.70;99.90
16523;DHT22;19889;52.546;13.348;2022-12-07T03:07:51;4.80;99.90
16523;DHT22;19889;52.546;13.348;2022-12-07T03:10:24;5.10;99.90
16523;DHT22;19889;52.546;13.348;2022-12-07T03:13:01;4.60;99.90
16523;DHT22;19889;52.546;13.348;2022-12-07T03:15:33;4.60;99.90
16523;DHT22;19889;52.546;13.348;2022-12-07T03:18:04;4.30;99.90
16523;DHT22;19889;52.546;13.348;2022-12-07T03:20:33;4.30;99.90
16523;DHT22;19889;52.546;13.348;2022-12-07T03:23:03;4.70;99.90
16523;DHT22;19889;52.546;13.348;2022-12-07T03:25:31;4.70;99.90
16523;DHT22;19889;52.546;13.348;2022-12-07T03:28:02;4.50;99.90
16523;DHT22;19889;52.546;13.348;2022-12-07T03:30:37;4.60;99.90
16523;DHT22;19889;52.546;13.348;2022-12-07T03:33:08;4.70;99.90
16523;DHT22;19889;52.546;13.348;2022-12-07T03:35:39;4.60;99.90
16523;DHT22;19889;52.546;13.348;2022-12-07T03:38:13;4.70;99.90
16523;DHT22;19889;52.546;13.348;2022-12-07T03:40:46;4.80;99.90
16523;DHT22;19889;52.546;13.348;2022-12-07T03:43:17;4.70;99.90
16523;DHT22;19889;52.546;13.348;2022-12-07T03:45:56;4.50;99.90
16523;DHT22;19889;52.546;13.348;2022-12-07T03:48:30;4.60;99.90
16523;DHT22;19889;52.546;13.348;2022-12-07T03:51:05;4.50;99.90
16523;DHT22;19889;52.546;13.348;2022-12-07T03:53:35;4.50;99.90
16523;DHT22;19889;52.546;13.348;2022-12-07T03:56:04;4.40;99.90
16523;DHT22;19889;52.546;13.348;2022-12-07T03:58:33;4.50;99.90
16523;DHT22;19889;52.546;13.348;2022-12-07T04:01:02;4.60;99.90
16523;DHT22;19889;52.546;13.348;2022-12-07T04:03:29;4.50;99.90
16523;DHT22;19889;52.546;13.348;2022-12-07T04:05:56;4.60;99.90
16523;DHT22;19889;52.546;13.348;2022-12-07T04:08:24;4.70;99.90
16523;DHT22;19889;52.546;13.348;2022-12-07T04:10:51;4.50;99.90
16523;DHT22;19889;52.546;13.348;2022-12-07T04:13:18;4.60;99.90
16523;DHT22;19889;52.546;13.348;2022-12-07T04:15:45;4.50;99.90
16523;DHT22;19889;52.546;13.348;2022-12-07T04:18:13;4.50;99.90
16523;DHT22;19889;52.546;13.348;2022-12-07T04:20:40;4.90;99.90
16523;DHT22;19889;52.546;13.348;2022-12-07T04:23:07;5.00;99.90
16523;DHT22;19889;52.546;13.348;2022-12-07T04:25:34;5.10;99.90
16523;DHT22;19889;52.546;13.348;2022-12-07T04:28:01;4.60;99.90
16523;DHT22;19889;52.546;13.348;2022-12-07T04:30:28;4.50;99.90
16523;DHT22;19889;52.546;13.348;2022-12-07T04:32:55;4.60;99.90
16523;DHT22;19889;52.546;13.348;2022-12-07T04:35:23;4.80;99.90
16523;DHT22;19889;52.546;13.348;2022-12-07T04:37:50;5.10;99.90
16523;DHT22;19889;52.546;13.348;2022-12-07T04:40:17;4.60;99.90
16523;DHT22;19889;52.546;13.348;2022-12-07T04:42:44;4.50;99.90
16523;DHT22;19889;52.546;13.348;2022-12-07T04:45:11;4.60;99.90
16523;DHT22;19889;52.546;13.348;2022-12-07T04:47:38;4.70;99.90
16523;DHT22;19889;52.546;13.348;2022-12-07T04:50:06;4.60;99.90
16523;DHT22;19889;52.546;13.348;2022-12-07T04:52:35;4.50;99.90
16523;DHT22;19889;52.546;13.348;2022-12-07T04:55:02;4.50;99.90
16523;DHT22;19889;52.546;13.348;2022-12-07T04:57:29;4.60;99.90
16523;DHT22;19889;52.546;13.348;2022-12-07T04:59:56;5.20;99.90
16523;DHT22;19889;52.546;13.348;2022-12-07T05:02:23;4.90;99.90
16523;DHT22;19889;52.546;13.348;2022-12-07T05:04:50;4.60;99.90
16523;DHT22;19889;52.546;13.348;2022-12-07T05:07:17;4.60;99.90
16523;DHT22;19889;52.546;13.348;2022-12-07T05:09:45;4.60;99.90
16523;DHT22;19889;52.546;13.348;2022-12-07T05:12:12;4.50;99.90
16523;DHT22;19889;52.546;13.348;2022-12-07T05:14:39;4.70;99.90
16523;DHT22;19889;52.546;13.348;2022-12-07T05:17:06;4.60;99.90
16523;DHT22;19889;52.546;13.348;2022-12-07T05:19:33;4.60;99.90
16523;DHT22;19889;52.546;13.348;2022-12-07T05:22:00;4.70;99.90
16523;DHT22;19889;52.546;13.348;2022-12-07T05:24:27;5.00;99.90
16523;DHT22;19889;52.546;13.348;2022-12-07T05:26:56;4.60;99.90
16523;DHT22;19889;52.546;13.348;2022-12-07T05:29:23;4.80;99.90
16523;DHT22;19889;52.546;13.348;2022-12-07T05:31:50;4.70;99.90
16523;DHT22;19889;52.546;13.348;2022-12-07T05:34:17;4.80;99.90
16523;DHT22;19889;52.546;13.348;2022-12-07T05:36:44;4.90;99.90
16523;DHT22;19889;52.546;13.348;2022-12-07T05:39:11;4.80;99.90
16523;DHT22;19889;52.546;13.348;2022-12-07T05:41:38;4.90;99.90
16523;DHT22;19889;52.546;13.348;2022-12-07T05:44:35;5.10;99.90
16523;DHT22;19889;52.546;13.348;2022-12-07T05:47:02;4.90;99.90
16523;DHT22;19889;52.546;13.348;2022-12-07T05:49:29;5.40;99.90
16523;DHT22;19889;52.546;13.348;2022-12-07T05:51:56;4.80;99.90
16523;DHT22;19889;52.546;13.348;2022-12-07T05:54:23;4.80;99.90
16523;DHT22;19889;52.546;13.348;2022-12-07T05:56:50;4.90;99.90
16523;DHT22;19889;52.546;13.348;2022-12-07T05:59:17;4.80;99.90
16523;DHT22;19889;52.546;13.348;2022-12-07T06:01:51;4.80;99.90
16523;DHT22;19889;52.546;13.348;2022-12-07T06:04:18;4.80;99.90
16523;DHT22;19889;52.546;13.348;2022-12-07T06:06:46;5.00;99.90
16523;DHT22;19889;52.546;13.348;2022-12-07T06:09:14;5.40;99.90
16523;DHT22;19889;52.546;13.348;2022-12-07T06:11:41;5.10;99.90
16523;DHT22;19889;52.546;13.348;2022-12-07T06:14:25;5.10;99.90
16523;DHT22;19889;52.546;13.348;2022-12-07T06:16:54;5.20;99.90
16523;DHT22;19889;52.546;13.348;2022-12-07T06:19:21;5.20;99.90
16523;DHT22;19889;52.546;13.348;2022-12-07T06:21:48;5.10;99.90
16523;DHT22;19889;52.546;13.348;2022-12-07T06:24:16;5.00;99.90
16523;DHT22;19889;52.546;13.348;2022-12-07T06:26:43;5.00;99.90
16523;DHT22;19889;52.546;13.348;2022-12-07T06:29:11;5.10;99.90
16523;DHT22;19889;52.546;13.348;2022-12-07T06:31:39;5.40;99.90
16523;DHT22;19889;52.546;13.348;2022-12-07T06:34:09;5.10;99.90
16523;DHT22;19889;52.546;13.348;2022-12-07T06:36:37;5.10;99.90
16523;DHT22;19889;52.546;13.348;2022-12-07T06:39:05;5.10;99.90
16523;DHT22;19889;52.546;13.348;2022-12-07T06:41:35;5.10;99.90
16523;DHT22;19889;52.546;13.348;2022-12-07T06:44:02;5.00;99.90
16523;DHT22;19889;52.546;13.348;2022-12-07T06:46:29;5.10;99.90
16523;DHT22;19889;52.546;13.348;2022-12-07T06:48:56;5.10;99.90
16523;DHT22;19889;52.546;13.348;2022-12-07T06:51:25;5.10;99.90
16523;DHT22;19889;52.546;13.348;2022-12-07T06:53:52;5.10;99.90
16523;DHT22;19889;52.546;13.348;2022-12-07T06:56:20;5.20;99.90
16523;DHT22;19889;52.546;13.348;2022-12-07T06:58:48;5.00;99.90
16523;DHT22;19889;52.546;13.348;2022-12-07T07:01:17;5.40;99.90
16523;DHT22;19889;52.546;13.348;2022-12-07T07:03:45;5.10;99.90
16523;DHT22;19889;52.546;13.348;2022-12-07T07:06:13;5.10;99.90
16523;DHT22;19889;52.546;13.348;2022-12-07T07:08:42;5.10;99.90
16523;DHT22;19889;52.546;13.348;2022-12-07T07:11:09;5.10;99.90
16523;DHT22;19889;52.546;13.348;2022-12-07T07:13:37;5.10;99.90
16523;DHT22;19889;52.546;13.348;2022-12-07T07:16:04;5.30;99.90
16523;DHT22;19889;52.546;13.348;2022-12-07T07:18:31;5.20;99.90
16523;DHT22;19889;52.546;13.348;2022-12-07T07:20:58;5.20;99.90
16523;DHT22;19889;52.546;13.348;2022-12-07T07:23:26;5.20;99.90
16523;DHT22;19889;52.546;13.348;2022-12-07T07:25:55;5.60;99.90
16523;DHT22;19889;52.546;13.348;2022-12-07T07:28:22;5.30;99.90
16523;DHT22;19889;52.546;13.348;2022-12-07T07:30:49;5.30;99.90
16523;DHT22;19889;52.546;13.348;2022-12-07T07:33:16;5.20;99.90
16523;DHT22;19889;52.546;13.348;2022-12-07T07:35:43;5.20;99.90
16523;DHT22;19889;52.546;13.348;2022-12-07T07:38:10;5.20;99.90
16523;DHT22;19889;52.546;13.348;2022-12-07T07:40:37;5.40;99.90
16523;DHT22;19889;52.546;13.348;2022-12-07T07:43:05;5.20;99.90
16523;DHT22;19889;52.546;13.348;2022-12-07T07:45:32;5.30;99.90
16523;DHT22;19889;52.546;13.348;2022-12-07T07:47:59;5.30;99.90
16523;DHT22;19889;52.546;13.348;2022-12-07T07:50:26;5.40;99.90
16523;DHT22;19889;52.546;13.348;2022-12-07T07:52:53;5.30;99.90
16523;DHT22;19889;52.546;13.348;2022-12-07T07:55:20;5.40;99.90
16523;DHT22;19889;52.546;13.348;2022-12-07T07:57:47;5.20;99.90
16523;DHT22;19889;52.546;13.348;2022-12-07T08:00:16;5.30;99.90
16523;DHT22;19889;52.546;13.348;2022-12-07T08:02:43;5.20;99.90
16523;DHT22;19889;52.546;13.348;2022-12-07T08:05:12;5.40;99.90
16523;DHT22;19889;52.546;13.348;2022-12-07T08:07:40;5.40;99.90
16523;DHT22;19889;52.546;13.348;2022-12-07T08:10:09;5.20;99.90
16523;DHT22;19889;52.546;13.348;2022-12-07T08:12:37;5.20;99.90
16523;DHT22;19889;52.546;13.348;2022-12-07T08:15:28;5.30;99.90
16523;DHT22;19889;52.546;13.348;2022-12-07T08:17:55;5.40;99.90
16523;DHT22;19889;52.546;13.348;2022-12-07T08:20:22;5.20;99.90
16523;DHT22;19889;52.546;13.348;2022-12-07T08:22:49;5.20;99.90
16523;DHT22;19889;52.546;13.348;2022-12-07T08:25:17;5.50;99.90
16523;DHT22;19889;52.546;13.348;2022-12-07T08:27:44;5.40;99.90
16523;DHT22;19889;52.546;13.348;2022-12-07T08:30:11;5.30;99.90
16523;DHT22;19889;52.546;13.348;2022-12-07T08:32:40;5.20;99.90
16523;DHT22;19889;52.546;13.348;2022-12-07T08:35:07;5.30;99.90
16523;DHT22;19889;52.546;13.348;2022-12-07T08:37:34;5.20;99.90
16523;DHT22;19889;52.546;13.348;2022-12-07T08:40:02;5.40;99.90
16523;DHT22;19889;52.546;13.348;2022-12-07T08:42:29;5.50;99.90
16523;DHT22;19889;52.546;13.348;2022-12-07T08:45:04;5.30;99.90
16523;DHT22;19889;52.546;13.348;2022-12-07T08:47:32;5.30;99.90
16523;DHT22;19889;52.546;13.348;2022-12-07T08:50:02;5.30;99.90
16523;DHT22;19889;52.546;13.348;2022-12-07T08:52:30;5.30;99.90
16523;DHT22;19889;52.546;13.348;2022-12-07T08:54:58;6.00;99.90
16523;DHT22;19889;52.546;13.348;2022-12-07T08:57:26;5.50;99.90
16523;DHT22;19889;52.546;13.348;2022-12-07T08:59:54;5.50;99.90
16523;DHT22;19889;52.546;13.348;2022-12-07T09:02:21;5.20;99.90
16523;DHT22;19889;52.546;13.348;2022-12-07T09:04:48;5.20;99.90
16523;DHT22;19889;52.546;13.348;2022-12-07T09:07:16;5.20;99.90
16523;DHT22;19889;52.546;13.348;2022-12-07T09:09:43;5.60;99.90
16523;DHT22;19889;52.546;13.348;2022-12-07T09:12:10;5.30;99.90
16523;DHT22;19889;52.546;13.348;2022-12-07T09:14:37;5.20;99.90
16523;DHT22;19889;52.546;13.348;2022-12-07T09:17:06;5.80;99.90
16523;DHT22;19889;52.546;13.348;2022-12-07T09:19:33;5.20;99.90
16523;DHT22;19889;52.546;13.348;2022-12-07T09:22:01;5.20;99.90
16523;DHT22;19889;52.546;13.348;2022-12-07T09:24:29;5.20;99.90
16523;DHT22;19889;52.546;13.348;2022-12-07T09:26:56;5.20;99.90
16523;DHT22;19889;52.546;13.348;2022-12-07T09:29:23;5.40;99.90
16523;DHT22;19889;52.546;13.348;2022-12-07T09:31:50;5.10;99.90
16523;DHT22;19889;52.546;13.348;2022-12-07T09:34:18;5.10;99.90
16523;DHT22;19889;52.546;13.348;2022-12-07T09:36:45;5.30;99.90
16523;DHT22;19889;52.546;13.348;2022-12-07T09:39:12;5.10;99.90
16523;DHT22;19889;52.546;13.348;2022-12-07T09:41:43;5.60;99.90
16523;DHT22;19889;52.546;13.348;2022-12-07T09:44:12;5.30;99.90
16523;DHT22;19889;52.546;13.348;2022-12-07T09:46:41;5.30;99.90
16523;DHT22;19889;52.546;13.348;2022-12-07T09:49:12;5.20;99.90
16523;DHT22;19889;52.546;13.348;2022-12-07T09:51:41;5.50;99.90
16523;DHT22;19889;52.546;13.348;2022-12-07T09:54:09;5.10;99.90
16523;DHT22;19889;52.546;13.348;2022-12-07T09:56:40;5.80;99.90
16523;DHT22;19889;52.546;13.348;2022-12-07T09:59:13;5.30;99.90
16523;DHT22;19889;52.546;13.348;2022-12-07T10:01:43;5.90;99.90
16523;DHT22;19889;52.546;13.348;2022-12-07T10:04:12;5.40;99.90
16523;DHT22;19889;52.546;13.348;2022-12-07T10:06:41;5.10;99.90
16523;DHT22;19889;52.546;13.348;2022-12-07T10:09:10;5.30;99.90
16523;DHT22;19889;52.546;13.348;2022-12-07T10:12:00;5.30;99.90
16523;DHT22;19889;52.546;13.348;2022-12-07T10:14:28;5.10;99.90
16523;DHT22;19889;52.546;13.348;2022-12-07T10:16:56;5.10;99.90
16523;DHT22;19889;52.546;13.348;2022-12-07T10:19:25;5.20;99.90
16523;DHT22;19889;52.546;13.348;2022-12-07T10:22:05;5.30;99.90
16523;DHT22;19889;52.546;13.348;2022-12-07T10:24:34;5.30;99.90
16523;DHT22;19889;52.546;13.348;2022-12-07T10:27:04;5.00;99.90
16523;DHT22;19889;52.546;13.348;2022-12-07T10:29:33;5.10;99.90
16523;DHT22;19889;52.546;13.348;2022-12-07T10:32:03;5.10;99.90
16523;DHT22;19889;52.546;13.348;2022-12-07T10:34:37;5.10;99.90
16523;DHT22;19889;52.546;13.348;2022-12-07T10:37:16;5.50;99.90
16523;DHT22;19889;52.546;13.348;2022-12-07T10:39:44;5.10;99.90
16523;DHT22;19889;52.546;13.348;2022-12-07T10:42:19;5.10;99.90
16523;DHT22;19889;52.546;13.348;2022-12-07T10:44:46;5.40;99.90
16523;DHT22;19889;52.546;13.348;2022-12-07T10:47:23;5.10;99.90
16523;DHT22;19889;52.546;13.348;2022-12-07T10:50:16;5.40;99.90
16523;DHT22;19889;52.546;13.348;2022-12-07T10:53:24;5.10;99.90
16523;DHT22;19889;52.546;13.348;2022-12-07T10:56:17;5.20;99.90
16523;DHT22;19889;52.546;13.348;2022-12-07T10:58:59;5.20;99.90
16523;DHT22;19889;52.546;13.348;2022-12-07T11:01:33;5.50;99.90
16523;DHT22;19889;52.546;13.348;2022-12-07T11:04:16;5.20;99.90
16523;DHT22;19889;52.546;13.348;2022-12-07T11:06:48;5.20;99.90
16523;DHT22;19889;52.546;13.348;2022-12-07T11:09:32;5.20;99.90
16523;DHT22;19889;52.546;13.348;2022-12-07T11:12:06;5.20;99.90
16523;DHT22;19889;52.546;13.348;2022-12-07T11:14:43;5.20;99.90
16523;DHT22;19889;52.546;13.348;2022-12-07T11:17:16;5.40;99.90
16523;DHT22;19889;52.546;13.348;2022-12-07T11:19:53;5.20;99.90
16523;DHT22;19889;52.546;13.348;2022-12-07T11:22:33;5.20;99.90
16523;DHT22;19889;52.546;13.348;2022-12-07T11:25:13;5.20;99.90
16523;DHT22;19889;52.546;13.348;2022-12-07T11:27:46;5.20;99.90
16523;DHT22;19889;52.546;13.348;2022-12-07T11:30:19;5.30;99.90
16523;DHT22;19889;52.546;13.348;2022-12-07T11:33:06;5.30;99.90
16523;DHT22;19889;52.546;13.348;2022-12-07T11:35:47;5.30;99.90
16523;DHT22;19889;52.546;13.348;2022-12-07T11:38:18;5.30;99.90
16523;DHT22;19889;52.546;13.348;2022-12-07T11:40:49;5.40;99.90
16523;DHT22;19889;52.546;13.348;2022-12-07T11:43:22;5.40;99.90
16523;DHT22;19889;52.546;13.348;2022-12-07T11:45:58;5.20;99.90
16523;DHT22;19889;52.546;13.348;2022-12-07T11:48:33;5.30;99.90
16523;DHT22;19889;52.546;13.348;2022-12-07T11:51:02;5.60;99.90
16523;DHT22;19889;52.546;13.348;2022-12-07T11:53:35;5.50;99.90
16523;DHT22;19889;52.546;13.348;2022-12-07T11:56:08;5.40;99.90
16523;DHT22;19889;52.546;13.348;2022-12-07T11:58:46;5.40;99.90
16523;DHT22;19889;52.546;13.348;2022-12-07T12:01:35;5.40;99.90
16523;DHT22;19889;52.546;13.348;2022-12-07T12:04:17;5.90;99.90
16523;DHT22;19889;52.546;13.348;2022-12-07T12:06:46;5.40;99.90
16523;DHT22;19889;52.546;13.348;2022-12-07T12:09:15;5.50;99.90
16523;DHT22;19889;52.546;13.348;2022-12-07T12:12:00;5.40;99.90
16523;DHT22;19889;52.546;13.348;2022-12-07T12:14:41;5.40;99.90
16523;DHT22;19889;52.546;13.348;2022-12-07T12:17:27;5.90;99.90
16523;DHT22;19889;52.546;13.348;2022-12-07T12:20:04;5.50;99.90
16523;DHT22;19889;52.546;13.348;2022-12-07T12:22:36;5.50;99.90
16523;DHT22;19889;52.546;13.348;2022-12-07T12:25:06;5.70;99.90
16523;DHT22;19889;52.546;13.348;2022-12-07T12:27:36;5.50;99.90
16523;DHT22;19889;52.546;13.348;2022-12-07T12:30:06;5.90;99.90
16523;DHT22;19889;52.546;13.348;2022-12-07T12:32:39;5.60;99.90
16523;DHT22;19889;52.546;13.348;2022-12-07T12:35:28;5.60;99.90
16523;DHT22;19889;52.546;13.348;2022-12-07T12:38:25;5.70;99.90
16523;DHT22;19889;52.546;13.348;2022-12-07T12:40:52;6.20;99.90
16523;DHT22;19889;52.546;13.348;2022-12-07T12:43:50;5.60;99.90
16523;DHT22;19889;52.546;13.348;2022-12-07T12:46:49;5.40;99.90
16523;DHT22;19889;52.546;13.348;2022-12-07T12:49:55;5.90;99.90
16523;DHT22;19889;52.546;13.348;2022-12-07T12:52:56;5.70;99.90
16523;DHT22;19889;52.546;13.348;2022-12-07T12:56:07;5.90;99.90
16523;DHT22;19889;52.546;13.348;2022-12-07T12:58:40;5.70;99.90
16523;DHT22;19889;52.546;13.348;2022-12-07T13:01:43;5.80;99.90
16523;DHT22;19889;52.546;13.348;2022-12-07T13:07:54;5.70;99.90
16523;DHT22;19889;52.546;13.348;2022-12-07T13:10:40;5.70;99.90
16523;DHT22;19889;52.546;13.348;2022-12-07T13:13:32;5.70;99.90
16523;DHT22;19889;52.546;13.348;2022-12-07T13:16:38;5.70;99.90
16523;DHT22;19889;52.546;13.348;2022-12-07T13:25:29;5.70;99.90
16523;DHT22;19889;52.546;13.348;2022-12-07T13:28:00;5.80;99.90
16523;DHT22;19889;52.546;13.348;2022-12-07T13:30:29;5.80;99.90
16523;DHT22;19889;52.546;13.348;2022-12-07T13:32:58;5.70;99.90
16523;DHT22;19889;52.546;13.348;2022-12-07T13:35:30;6.20;99.90
16523;DHT22;19889;52.546;13.348;2022-12-07T13:37:59;5.70;99.90
16523;DHT22;19889;52.546;13.348;2022-12-07T13:40:29;5.80;99.90
16523;DHT22;19889;52.546;13.348;2022-12-07T13:43:00;6.10;99.90
16523;DHT22;19889;52.546;13.348;2022-12-07T13:45:29;5.80;99.90
16523;DHT22;19889;52.546;13.348;2022-12-07T13:48:19;6.20;99.90
16523;DHT22;19889;52.546;13.348;2022-12-07T13:50:53;6.00;99.90
16523;DHT22;19889;52.546;13.348;2022-12-07T13:53:20;4.60;99.90
16523;DHT22;19889;52.546;13.348;2022-12-07T13:55:49;5.70;99.90
16523;DHT22;19889;52.546;13.348;2022-12-07T13:58:17;5.80;99.90
16523;DHT22;19889;52.546;13.348;2022-12-07T14:00:44;6.10;99.90
16523;DHT22;19889;52.546;13.348;2022-12-07T14:03:27;5.80;99.90
16523;DHT22;19889;52.546;13.348;2022-12-07T14:06:17;5.90;99.90
16523;DHT22;19889;52.546;13.348;2022-12-07T14:08:46;5.80;99.90
16523;DHT22;19889;52.546;13.348;2022-12-07T14:11:16;6.00;99.90
16523;DHT22;19889;52.546;13.348;2022-12-07T14:13:55;5.80;99.90
16523;DHT22;19889;52.546;13.348;2022-12-07T14:16:26;5.70;99.90
16523;DHT22;19889;52.546;13.348;2022-12-07T14:18:55;6.20;99.90
16523;DHT22;19889;52.546;13.348;2022-12-07T14:21:23;6.00;99.90
16523;DHT22;19889;52.546;13.348;2022-12-07T14:24:12;5.70;99.90
16523;DHT22;19889;52.546;13.348;2022-12-07T14:26:43;5.70;99.90
16523;DHT22;19889;52.546;13.348;2022-12-07T14:29:31;5.70;99.90
16523;DHT22;19889;52.546;13.348;2022-12-07T14:32:18;5.60;99.90
16523;DHT22;19889;52.546;13.348;2022-12-07T14:34:54;5.80;99.90
16523;DHT22;19889;52.546;13.348;2022-12-07T14:37:21;5.70;99.90
16523;DHT22;19889;52.546;13.348;2022-12-07T14:39:48;6.00;99.90
16523;DHT22;19889;52.546;13.348;2022-12-07T14:42:16;5.70;99.90
16523;DHT22;19889;52.546;13.348;2022-12-07T14:44:43;6.10;99.90
16523;DHT22;19889;52.546;13.348;2022-12-07T14:47:11;5.80;99.90
16523;DHT22;19889;52.546;13.348;2022-12-07T14:49:38;5.70;99.90
16523;DHT22;19889;52.546;13.348;2022-12-07T14:52:08;5.90;99.90
16523;DHT22;19889;52.546;13.348;2022-12-07T14:54:38;5.90;99.90
16523;DHT22;19889;52.546;13.348;2022-12-07T14:57:05;5.80;99.90
16523;DHT22;19889;52.546;13.348;2022-12-07T14:59:33;5.70;99.90
16523;DHT22;19889;52.546;13.348;2022-12-07T15:02:00;5.70;99.90
16523;DHT22;19889;52.546;13.348;2022-12-07T15:04:27;6.20;99.90
16523;DHT22;19889;52.546;13.348;2022-12-07T15:06:58;5.90;99.90
16523;DHT22;19889;52.546;13.348;2022-12-07T15:09:25;5.70;99.90
16523;DHT22;19889;52.546;13.348;2022-12-07T15:11:52;5.90;99.90
16523;DHT22;19889;52.546;13.348;2022-12-07T15:14:19;5.80;99.90
16523;DHT22;19889;52.546;13.348;2022-12-07T15:16:47;5.60;99.90
16523;DHT22;19889;52.546;13.348;2022-12-07T15:19:15;5.70;99.90
16523;DHT22;19889;52.546;13.348;2022-12-07T15:21:43;5.60;99.90
16523;DHT22;19889;52.546;13.348;2022-12-07T15:24:11;5.80;99.90
16523;DHT22;19889;52.546;13.348;2022-12-07T15:26:38;5.60;99.90
16523;DHT22;19889;52.546;13.348;2022-12-07T15:29:06;5.60;99.90
16523;DHT22;19889;52.546;13.348;2022-12-07T15:31:34;6.10;99.90
16523;DHT22;19889;52.546;13.348;2022-12-07T15:34:02;5.60;99.90
16523;DHT22;19889;52.546;13.348;2022-12-07T15:36:31;5.70;99.90
16523;DHT22;19889;52.546;13.348;2022-12-07T15:38:58;5.50;99.90
16523;DHT22;19889;52.546;13.348;2022-12-07T15:41:26;5.50;99.90
16523;DHT22;19889;52.546;13.348;2022-12-07T15:43:53;5.60;99.90
16523;DHT22;19889;52.546;13.348;2022-12-07T15:46:40;5.60;99.90
16523;DHT22;19889;52.546;13.348;2022-12-07T15:49:11;5.80;99.90
16523;DHT22;19889;52.546;13.348;2022-12-07T15:51:38;5.50;99.90
16523;DHT22;19889;52.546;13.348;2022-12-07T15:54:05;5.50;99.90
16523;DHT22;19889;52.546;13.348;2022-12-07T15:56:32;5.60;99.90
16523;DHT22;19889;52.546;13.348;2022-12-07T15:58:59;5.50;99.90
16523;DHT22;19889;52.546;13.348;2022-12-07T16:01:26;5.40;99.90
16523;DHT22;19889;52.546;13.348;2022-12-07T16:03:53;5.40;99.90
16523;DHT22;19889;52.546;13.348;2022-12-07T16:06:22;5.50;99.90